createdAt,value
2019-04-11T00:01:10.115Z,102454.03
2019-04-11T00:03:41.686Z,102455.63
2019-04-11T00:06:12.267Z,102453.29
2019-04-11T00:08:43.881Z,102457.48
2019-04-11T00:11:14.748Z,102459.19
2019-04-11T00:13:45.197Z,102456.97
2019-04-11T00:16:15.848Z,102459.80
2019-04-11T00:18:47.159Z,102456.70
2019-04-11T00:21:17.682Z,102458.34
2019-04-11T00:23:48.330Z,102456.84
2019-04-11T00:26:20.079Z,102448.91
2019-04-11T00:28:50.679Z,102456.98
2019-04-11T00:31:21.074Z,102457.30
2019-04-11T00:33:51.365Z,102455.52
2019-04-11T00:36:22.228Z,102459.20
2019-04-11T00:38:52.325Z,102462.09
2019-04-11T00:41:23.842Z,102456.75
2019-04-11T00:43:54.648Z,102458.93
2019-04-11T00:46:24.801Z,102463.13
2019-04-11T00:48:55.023Z,102458.83
2019-04-11T00:51:25.693Z,102458.76
2019-04-11T00:53:55.966Z,102464.66
2019-04-11T00:56:26.279Z,102463.66
2019-04-11T00:58:56.510Z,102471.43
2019-04-11T01:01:26.643Z,102464.75
2019-04-11T01:03:56.803Z,102468.16
2019-04-11T01:06:27.906Z,102472.05
2019-04-11T01:08:58.266Z,102475.41
2019-04-11T01:11:28.482Z,102474.53
2019-04-11T01:13:59.527Z,102478.34
2019-04-11T01:16:48.572Z,102475.75
2019-04-11T01:19:32.940Z,102472.66
2019-04-11T01:22:01.720Z,102478.13
2019-04-11T01:24:31.946Z,102474.55
2019-04-11T01:27:02.491Z,102480.95
2019-04-11T01:29:33.556Z,102479.05
2019-04-11T01:32:06.583Z,102486.64
2019-04-11T01:34:37.148Z,102487.45
2019-04-11T01:37:07.316Z,102484.66
2019-04-11T01:40:01.342Z,102485.47
2019-04-11T01:42:31.971Z,102489.66
2019-04-11T01:45:03.139Z,102495.84
2019-04-11T01:50:04.948Z,102482.02
2019-04-11T01:52:36.209Z,102493.38
2019-04-11T01:55:08.140Z,102486.01
2019-04-11T01:57:38.432Z,102496.98
2019-04-11T02:00:10.872Z,102492.58
2019-04-11T02:02:54.925Z,102487.30
2019-04-11T02:05:32.696Z,102488.42
2019-04-11T02:08:03.082Z,102494.30
2019-04-11T02:10:33.381Z,102493.61
2019-04-11T02:13:03.685Z,102492.91
2019-04-11T02:15:34.546Z,102489.67
2019-04-11T02:18:05.436Z,102498.50
2019-04-11T02:20:36.809Z,102502.20
2019-04-11T02:23:29.097Z,102503.80
2019-04-11T02:26:18.878Z,102501.80
2019-04-11T02:28:49.347Z,102503.32
2019-04-11T02:31:22.043Z,102504.98
2019-04-11T02:33:51.716Z,102504.98
2019-04-11T02:36:22.415Z,102503.98
2019-04-11T02:38:56.557Z,102508.79
2019-04-11T02:41:25.443Z,102508.49
2019-04-11T02:43:57.326Z,102502.10
2019-04-11T02:46:37.106Z,102508.27
2019-04-11T02:49:01.528Z,102505.09
2019-04-11T02:51:31.686Z,102510.36
2019-04-11T02:54:02.339Z,102502.78
2019-04-11T02:56:35.722Z,102513.30
2019-04-11T02:59:07.121Z,102515.45
2019-04-11T03:01:37.507Z,102514.37
2019-04-11T03:04:07.741Z,102518.84
2019-04-11T03:06:39.709Z,102519.33
2019-04-11T03:09:10.896Z,102520.92
2019-04-11T03:11:42.837Z,102516.38
2019-04-11T03:14:14.260Z,102521.64
2019-04-11T03:16:56.232Z,102520.06
2019-04-11T03:19:30.389Z,102526.16
2019-04-11T03:21:50.025Z,102521.37
2019-04-11T03:24:21.827Z,102530.43
2019-04-11T03:26:54.896Z,102528.77
2019-04-11T03:29:26.570Z,102529.25
2019-04-11T03:32:49.358Z,102529.25
2019-04-11T03:37:24.134Z,102530.55
2019-04-11T03:39:56.028Z,102527.97
2019-04-11T03:42:20.645Z,102528.77
2019-04-11T03:44:42.715Z,102532.14
2019-04-11T03:49:51.111Z,102530.84
2019-04-11T03:52:17.201Z,102535.34
2019-04-11T03:54:48.080Z,102535.64
2019-04-11T03:57:21.323Z,102532.54
2019-04-11T03:59:52.142Z,102538.00
2019-04-11T04:02:23.083Z,102532.65
2019-04-11T04:04:54.782Z,102538.22
2019-04-11T04:07:25.144Z,102539.81
2019-04-11T04:09:55.382Z,102541.80
2019-04-11T04:12:27.180Z,102537.70
2019-04-11T04:15:40.109Z,102534.45
2019-04-11T04:18:23.887Z,102548.95
2019-04-11T04:21:13.391Z,102537.31
2019-04-11T04:23:46.908Z,102544.95
2019-04-11T04:26:19.005Z,102552.22
2019-04-11T04:28:49.229Z,102550.70
2019-04-11T04:31:19.464Z,102554.38
2019-04-11T04:33:51.258Z,102558.26
2019-04-11T04:36:22.376Z,102561.25
2019-04-11T04:38:52.779Z,102564.60
2019-04-11T04:41:33.526Z,102565.89
2019-04-11T04:43:57.474Z,102567.59
2019-04-11T04:46:45.241Z,102564.20
2019-04-11T04:49:00.174Z,102563.20
2019-04-11T04:51:31.198Z,102566.78
2019-04-11T04:54:02.000Z,102567.78
2019-04-11T04:56:33.115Z,102567.78
2019-04-11T04:59:04.981Z,102564.91
2019-04-11T05:01:37.333Z,102566.31
2019-04-11T05:04:09.183Z,102566.42
2019-04-11T05:06:40.886Z,102577.73
2019-04-11T05:09:12.851Z,102574.08
2019-04-11T05:11:44.528Z,102576.85
2019-04-11T05:14:14.886Z,102581.25
2019-04-11T05:16:46.110Z,102579.03
2019-04-11T05:19:17.010Z,102578.05
2019-04-11T05:21:47.837Z,102580.73
2019-04-11T05:24:18.691Z,102579.34
2019-04-11T05:26:50.219Z,102581.34
2019-04-11T05:29:21.615Z,102583.23
2019-04-11T05:31:51.905Z,102580.95
2019-04-11T05:34:22.135Z,102579.47
2019-04-11T05:36:53.310Z,102580.06
2019-04-11T05:39:23.700Z,102584.24
2019-04-11T05:41:54.467Z,102577.48
2019-04-11T05:44:25.122Z,102583.06
2019-04-11T05:46:59.107Z,102579.97
2019-04-11T05:49:46.692Z,102583.36
2019-04-11T05:52:17.775Z,102580.36
2019-04-11T05:54:52.440Z,102585.64
2019-04-11T05:57:26.926Z,102587.11
2019-04-11T05:59:56.218Z,102589.87
2019-04-11T06:02:35.291Z,102597.22
2019-04-11T06:05:23.821Z,102594.73
2019-04-11T06:08:02.339Z,102595.00
2019-04-11T06:10:46.501Z,102596.37
2019-04-11T06:13:20.568Z,102599.84
2019-04-11T06:15:53.563Z,102601.59
2019-04-11T06:18:44.907Z,102601.97
2019-04-11T06:21:20.374Z,102608.49
2019-04-11T06:24:12.392Z,102602.81
2019-04-11T06:27:00.216Z,102606.13
2019-04-11T06:29:36.948Z,102610.77
2019-04-11T06:32:23.611Z,102623.52
2019-04-11T06:35:01.979Z,102615.20
2019-04-11T06:37:49.974Z,102618.70
2019-04-11T06:40:26.459Z,102625.13
2019-04-11T06:43:07.815Z,102622.72
2019-04-11T06:46:09.108Z,102628.19
2019-04-11T06:48:49.653Z,102628.30
2019-04-11T06:51:24.092Z,102627.09
2019-04-11T06:54:12.701Z,102620.91
2019-04-11T06:56:45.548Z,102627.38
2019-04-11T06:59:22.200Z,102636.81
2019-04-11T07:01:53.056Z,102632.64
2019-04-11T07:04:46.328Z,102632.31
2019-04-11T07:07:16.669Z,102632.20
2019-04-11T07:09:59.672Z,102634.93
2019-04-11T07:12:55.944Z,102634.30
2019-04-11T07:15:37.604Z,102630.73
2019-04-11T07:18:26.960Z,102628.88
2019-04-11T07:21:00.541Z,102633.02
2019-04-11T07:23:49.180Z,102635.62
2019-04-11T07:26:50.644Z,102637.09
2019-04-11T07:29:38.636Z,102644.54
2019-04-11T07:32:20.232Z,102635.88
2019-04-11T07:35:08.654Z,102639.27
2019-04-11T07:37:47.428Z,102634.11
2019-04-11T07:40:39.196Z,102633.67
2019-04-11T07:43:20.360Z,102636.56
2019-04-11T07:46:16.804Z,102635.95
2019-04-11T07:48:47.400Z,102639.72
2019-04-11T07:51:25.371Z,102632.55
2019-04-11T07:53:56.950Z,102643.37
2019-04-11T07:56:49.215Z,102641.23
2019-04-11T07:59:39.690Z,102643.45
2019-04-11T08:02:33.254Z,102647.83
2019-04-11T08:05:32.347Z,102648.50
2019-04-11T08:08:21.456Z,102644.59
2019-04-11T08:11:00.309Z,102648.53
2019-04-11T08:13:48.336Z,102650.05
2019-04-11T08:16:46.810Z,102655.61
2019-04-11T08:19:35.219Z,102663.20
2019-04-11T08:22:25.669Z,102651.72
2019-04-11T08:25:09.146Z,102658.68
2019-04-11T08:27:56.023Z,102655.17
2019-04-11T08:30:20.138Z,102660.75
2019-04-11T08:32:58.294Z,102660.67
2019-04-11T08:35:53.441Z,102660.19
2019-04-11T08:38:24.998Z,102661.30
2019-04-11T08:41:01.042Z,102659.91
2019-04-11T08:43:33.087Z,102662.42
2019-04-11T08:46:08.697Z,102663.14
2019-04-11T08:48:42.775Z,102667.03
2019-04-11T08:51:13.321Z,102665.67
2019-04-11T08:54:01.928Z,102658.13
2019-04-11T08:56:32.284Z,102657.34
2019-04-11T08:59:37.678Z,102663.16
2019-04-11T09:02:08.682Z,102658.00
2019-04-11T09:05:11.986Z,102663.08
2019-04-11T09:07:48.318Z,102666.58
2019-04-11T09:10:36.513Z,102663.59
2019-04-11T09:13:22.998Z,102657.43
2019-04-11T09:16:13.154Z,102666.28
2019-04-11T09:18:44.063Z,102671.26
2019-04-11T09:21:40.316Z,102669.41
2019-04-11T09:24:24.714Z,102662.30
2019-04-11T09:27:12.548Z,102660.33
2019-04-11T09:29:46.269Z,102662.36
2019-04-11T09:32:36.137Z,102657.92
2019-04-11T09:35:14.525Z,102653.32
2019-04-11T09:37:46.217Z,102655.75
2019-04-11T09:40:54.237Z,102664.94
2019-04-11T09:43:28.119Z,102653.84
2019-04-11T09:46:16.482Z,102656.47
2019-04-11T09:49:12.339Z,102651.41
2019-04-11T09:51:58.319Z,102645.28
2019-04-11T09:54:36.569Z,102648.86
2019-04-11T09:57:22.701Z,102642.05
2019-04-11T10:00:12.653Z,102654.86
2019-04-11T10:02:48.882Z,102645.79
2019-04-11T10:05:22.456Z,102642.50
2019-04-11T10:08:24.585Z,102647.98
2019-04-11T10:11:13.533Z,102650.16
2019-04-11T10:13:55.477Z,102647.58
2019-04-11T10:16:44.346Z,102648.20
2019-04-11T10:19:20.041Z,102648.03
2019-04-11T10:21:56.473Z,102648.41
2019-04-11T10:24:49.077Z,102647.17
2019-04-11T10:27:38.656Z,102652.48
2019-04-11T10:30:27.617Z,102653.75
2019-04-11T10:33:00.840Z,102652.23
2019-04-11T10:35:53.014Z,102653.54
2019-04-11T10:38:24.469Z,102653.70
2019-04-11T10:41:14.686Z,102657.09
2019-04-11T10:43:47.457Z,102655.38
2019-04-11T10:46:37.527Z,102648.87
2019-04-11T10:49:36.590Z,102654.77
2019-04-11T10:52:26.666Z,102654.05
2019-04-11T10:55:09.473Z,102646.95
2019-04-11T10:57:44.585Z,102652.48
2019-04-11T11:00:35.597Z,102648.67
2019-04-11T11:03:13.780Z,102641.80
2019-04-11T11:05:47.225Z,102639.45
2019-04-11T11:08:35.675Z,102643.65
2019-04-11T11:11:13.327Z,102635.33
2019-04-11T11:14:08.476Z,102636.78
2019-04-11T11:16:45.598Z,102637.29
2019-04-11T11:20:03.872Z,102643.52
2019-04-11T11:22:40.474Z,102626.83
2019-04-11T11:25:28.025Z,102632.16
2019-04-11T11:27:58.241Z,102637.00
2019-04-11T11:30:51.961Z,102633.91
2019-04-11T11:33:25.226Z,102644.84
2019-04-11T11:36:17.579Z,102645.58
2019-04-11T11:39:08.867Z,102641.02
2019-04-11T11:42:02.086Z,102646.30
2019-04-11T11:44:42.725Z,102650.72
2019-04-11T11:47:35.470Z,102646.48
2019-04-11T11:50:04.536Z,102643.50
2019-04-11T11:53:08.152Z,102637.82
2019-04-11T11:55:37.910Z,102640.09
2019-04-11T11:58:38.939Z,102637.44
2019-04-11T12:01:09.591Z,102640.11
2019-04-11T12:04:01.312Z,102640.95
2019-04-11T12:06:29.835Z,102639.13
2019-04-11T12:09:18.906Z,102636.87
2019-04-11T12:11:53.958Z,102640.41
2019-04-11T12:14:45.051Z,102640.02
2019-04-11T12:17:40.649Z,102643.52
2019-04-11T12:20:22.854Z,102646.63
2019-04-11T12:22:53.736Z,102643.58
2019-04-11T12:25:31.401Z,102640.97
2019-04-11T12:28:14.643Z,102641.41
2019-04-11T12:31:05.438Z,102642.73
2019-04-11T12:33:57.681Z,102637.44
2019-04-11T12:36:31.075Z,102640.05
2019-04-11T12:39:12.012Z,102636.08
2019-04-11T12:41:59.686Z,102633.87
2019-04-11T12:44:47.121Z,102640.06
2019-04-11T12:47:38.725Z,102638.22
2019-04-11T12:50:31.119Z,102632.70
2019-04-11T12:53:20.408Z,102633.19
2019-04-11T12:56:12.165Z,102630.67
2019-04-11T12:59:04.566Z,102635.67
2019-04-11T13:01:52.787Z,102631.83
2019-04-11T13:04:33.949Z,102626.54
2019-04-11T13:07:33.081Z,102631.96
2019-04-11T13:10:19.039Z,102629.63
2019-04-11T13:13:20.270Z,102631.55
2019-04-11T13:16:12.464Z,102627.77
2019-04-11T13:19:03.515Z,102625.31
2019-04-11T13:21:50.110Z,102614.64
2019-04-11T13:24:54.528Z,102616.23
2019-04-11T13:27:27.466Z,102613.01
2019-04-11T13:30:19.118Z,102612.17
2019-04-11T13:33:04.610Z,102606.63
2019-04-11T13:36:02.682Z,102609.45
2019-04-11T13:38:41.118Z,102622.33
2019-04-11T13:41:28.975Z,102619.13
2019-04-11T13:44:06.392Z,102625.20
2019-04-11T13:46:55.587Z,102625.26
2019-04-11T13:49:44.681Z,102619.86
2019-04-11T13:52:33.813Z,102619.08
2019-04-11T13:55:13.905Z,102606.25
2019-04-11T13:58:01.781Z,102615.09
2019-04-11T14:00:51.138Z,102607.45
2019-04-11T14:03:49.351Z,102604.58
2019-04-11T14:06:37.367Z,102594.12
2019-04-11T14:09:30.516Z,102594.09
2019-04-11T14:11:59.750Z,102596.97
2019-04-11T14:15:01.190Z,102596.31
2019-04-11T14:17:51.645Z,102592.85
2019-04-11T14:20:43.618Z,102580.02
2019-04-11T14:23:35.924Z,102585.14
2019-04-11T14:26:30.695Z,102591.86
2019-04-11T14:29:14.998Z,102590.13
2019-04-11T14:31:50.954Z,102596.77
2019-04-11T14:34:40.286Z,102581.30
2019-04-11T14:37:18.882Z,102580.84
2019-04-11T14:39:51.490Z,102582.61
2019-04-11T14:42:34.299Z,102585.51
2019-04-11T14:45:06.385Z,102582.66
2019-04-11T14:47:58.469Z,102582.41
2019-04-11T14:50:40.757Z,102586.66
2019-04-11T14:53:33.157Z,102581.63
2019-04-11T14:56:06.209Z,102578.20
2019-04-11T14:58:58.556Z,102583.45
2019-04-11T15:01:28.816Z,102584.72
2019-04-11T15:04:15.747Z,102584.70
2019-04-11T15:06:49.419Z,102585.56
2019-04-11T15:09:38.974Z,102591.80
2019-04-11T15:12:17.576Z,102589.20
2019-04-11T15:15:23.721Z,102581.31
2019-04-11T15:17:59.358Z,102586.13
2019-04-11T15:20:54.893Z,102592.14
2019-04-11T15:23:24.718Z,102591.50
2019-04-11T15:26:13.948Z,102581.50
2019-04-11T15:28:56.070Z,102582.62
2019-04-11T15:31:39.588Z,102583.89
2019-04-11T15:34:17.983Z,102576.33
2019-04-11T15:36:58.497Z,102588.80
2019-04-11T15:39:47.592Z,102584.76
2019-04-11T15:42:27.136Z,102584.95
2019-04-11T15:45:21.136Z,102584.25
2019-04-11T15:48:06.458Z,102585.36
2019-04-11T15:51:05.790Z,102594.00
2019-04-11T15:53:36.930Z,102590.28
2019-04-11T15:56:25.384Z,102593.93
2019-04-11T15:59:01.274Z,102599.87
2019-04-11T16:02:09.030Z,102592.22
2019-04-11T16:04:59.320Z,102595.27
2019-04-11T16:07:49.022Z,102599.50
2019-04-11T16:10:19.408Z,102599.80
2019-04-11T16:12:56.720Z,102600.42
2019-04-11T16:15:30.989Z,102601.61
2019-04-11T16:18:26.483Z,102601.30
2019-04-11T16:21:00.214Z,102612.03
2019-04-11T16:23:39.242Z,102606.42
2019-04-11T16:26:13.024Z,102601.80
2019-04-11T16:28:57.786Z,102611.69
2019-04-11T16:31:34.892Z,102609.21
2019-04-11T16:34:22.993Z,102614.61
2019-04-11T16:36:58.666Z,102620.27
2019-04-11T16:39:54.742Z,102614.04
2019-04-11T16:42:41.653Z,102622.51
2019-04-11T16:48:03.090Z,102623.73
2019-04-11T16:50:33.649Z,102620.56
2019-04-11T16:53:04.163Z,102623.27
2019-04-11T16:55:36.670Z,102624.33
2019-04-11T16:58:07.108Z,102631.22
2019-04-11T17:00:37.346Z,102626.28
2019-04-11T17:03:07.615Z,102624.66
2019-04-11T17:05:39.382Z,102630.94
2019-04-11T17:08:34.568Z,102625.83
2019-04-11T17:11:10.647Z,102626.81
2019-04-11T17:13:41.205Z,102627.78
2019-04-11T17:16:13.911Z,102632.78
2019-04-11T17:18:44.089Z,102630.41
2019-04-11T17:21:20.022Z,102631.73
2019-04-11T17:23:50.240Z,102634.52
2019-04-11T17:26:22.970Z,102637.77
2019-04-11T17:28:54.328Z,102638.33
2019-04-11T17:31:25.949Z,102646.03
2019-04-11T17:33:56.858Z,102642.64
2019-04-11T17:36:30.743Z,102647.35
2019-04-11T17:39:00.629Z,102648.33
2019-04-11T17:41:32.909Z,102646.77
2019-04-11T17:44:02.839Z,102650.53
2019-04-11T17:46:33.442Z,102653.62
2019-04-11T17:49:03.751Z,102653.13
2019-04-11T17:51:35.265Z,102658.80
2019-04-11T17:54:06.750Z,102656.67
2019-04-11T17:56:37.834Z,102657.22
2019-04-11T17:59:08.236Z,102657.70
2019-04-11T18:01:38.772Z,102660.91
2019-04-11T18:04:13.207Z,102669.85
2019-04-11T18:06:41.738Z,102672.25
2019-04-11T18:09:13.765Z,102679.58
2019-04-11T18:11:44.572Z,102675.34
2019-04-11T18:14:15.533Z,102683.88
2019-04-11T18:16:46.352Z,102678.35
2019-04-11T18:19:19.304Z,102682.97
2019-04-11T18:21:50.085Z,102685.42
2019-04-11T18:24:20.771Z,102680.77
2019-04-11T18:26:53.954Z,102673.89
2019-04-11T18:29:25.249Z,102677.48
2019-04-11T18:31:56.160Z,102693.08
2019-04-11T18:34:26.941Z,102691.42
2019-04-11T18:36:57.500Z,102698.21
2019-04-11T18:39:30.341Z,102705.88
2019-04-11T18:42:01.399Z,102706.17
2019-04-11T18:44:31.970Z,102697.61
2019-04-11T18:47:02.445Z,102711.57
2019-04-11T18:49:33.842Z,102709.20
2019-04-11T18:52:04.147Z,102722.48
2019-04-11T18:54:34.428Z,102720.18
2019-04-11T18:57:04.715Z,102722.12
2019-04-11T18:59:34.934Z,102713.98
2019-04-11T19:02:09.610Z,102724.44
2019-04-11T19:04:37.516Z,102731.20
2019-04-11T19:07:07.989Z,102737.55
2019-04-11T19:09:38.295Z,102737.02
2019-04-11T19:12:10.478Z,102739.48
2019-04-11T19:14:41.131Z,102732.65
2019-04-11T19:17:15.470Z,102740.48
2019-04-11T19:19:48.574Z,102742.21
2019-04-11T19:22:19.573Z,102740.41
2019-04-11T19:24:53.308Z,102738.64
2019-04-11T19:27:25.656Z,102736.73
2019-04-11T19:29:56.733Z,102742.41
2019-04-11T19:32:27.601Z,102734.38
2019-04-11T19:34:58.513Z,102740.45
2019-04-11T19:37:29.101Z,102739.06
2019-04-11T19:39:59.811Z,102746.83
2019-04-11T19:42:30.397Z,102745.06
2019-04-11T19:45:05.699Z,102746.79
2019-04-11T19:47:36.410Z,102749.82
2019-04-11T19:55:38.498Z,102745.75
2019-04-11T19:58:09.186Z,102753.59
2019-04-11T20:00:40.052Z,102756.96
2019-04-11T20:03:10.790Z,102759.66
2019-04-11T20:05:41.421Z,102755.73
2019-04-11T20:08:12.416Z,102752.63
2019-04-11T20:10:43.140Z,102758.66
2019-04-11T20:13:13.853Z,102758.50
2019-04-11T20:15:44.203Z,102757.62
2019-04-11T20:18:22.201Z,102761.49
2019-04-11T20:20:52.139Z,102754.00
2019-04-11T20:23:22.329Z,102758.69
2019-04-11T20:25:54.787Z,102758.53
2019-04-11T20:28:31.612Z,102759.84
2019-04-11T20:33:37.416Z,102746.78
2019-04-11T20:36:08.242Z,102752.30
2019-04-11T20:38:40.169Z,102749.49
2019-04-11T20:41:10.753Z,102753.75
2019-04-11T20:43:43.241Z,102752.37
2019-04-11T20:46:13.968Z,102752.29
2019-04-11T20:48:44.552Z,102748.72
2019-04-11T20:51:17.505Z,102762.61
2019-04-11T20:53:47.313Z,102757.73
2019-04-11T20:56:24.092Z,102761.98
2019-04-11T20:58:50.478Z,102755.77
2019-04-11T21:01:21.225Z,102755.18
2019-04-11T21:03:51.950Z,102751.98
2019-04-11T21:06:22.803Z,102751.98
2019-04-11T21:08:53.516Z,102751.02
2019-04-11T21:11:24.653Z,102757.89
2019-04-11T21:13:55.510Z,102758.22
2019-04-11T21:16:26.785Z,102770.39
2019-04-11T21:18:57.984Z,102765.09
2019-04-11T21:21:28.637Z,102765.43
2019-04-11T21:24:00.413Z,102769.77
2019-04-11T21:26:32.122Z,102766.11
2019-04-11T21:29:02.510Z,102766.06
2019-04-11T21:31:36.498Z,102760.64
2019-04-11T21:34:07.723Z,102763.24
2019-04-11T21:36:37.906Z,102762.20
2019-04-11T21:39:10.142Z,102762.11
2019-04-11T21:41:40.738Z,102762.45
2019-04-11T21:44:11.056Z,102765.41
2019-04-11T21:46:42.035Z,102769.69
2019-04-11T21:49:12.586Z,102770.02
2019-04-11T21:51:43.196Z,102768.55
2019-04-11T21:54:15.106Z,102769.39
2019-04-11T21:56:49.289Z,102767.12
2019-04-11T21:59:20.049Z,102768.30
2019-04-11T22:01:53.780Z,102772.55
2019-04-11T22:04:21.701Z,102762.36
2019-04-11T22:09:10.534Z,102768.30
2019-04-11T22:11:40.836Z,102773.89
2019-04-11T22:14:11.828Z,102778.09
2019-04-11T22:16:45.163Z,102784.53
2019-04-11T22:19:14.907Z,102781.04
2019-04-11T22:21:45.996Z,102771.75
2019-04-11T22:24:16.325Z,102774.35
2019-04-11T22:26:50.231Z,102776.02
2019-04-11T22:29:18.480Z,102779.94
2019-04-11T22:31:48.731Z,102784.23
2019-04-11T22:34:28.272Z,102777.35
2019-04-11T22:36:59.894Z,102781.26
2019-04-11T22:39:31.603Z,102778.36
2019-04-11T22:42:01.586Z,102778.56
2019-04-11T22:44:31.724Z,102781.50
2019-04-11T22:47:07.556Z,102776.63
2019-04-11T22:49:36.865Z,102781.70
2019-04-11T22:52:07.522Z,102778.97
2019-04-11T22:54:37.690Z,102782.87
2019-04-11T22:57:11.882Z,102781.08
2019-04-11T22:59:44.026Z,102786.29
2019-04-11T23:02:36.671Z,102787.92
2019-04-11T23:05:07.270Z,102789.56
2019-04-11T23:07:37.382Z,102789.43
2019-04-11T23:10:08.035Z,102788.05
2019-04-11T23:12:38.314Z,102787.58
2019-04-11T23:15:10.070Z,102785.38
2019-04-11T23:17:41.764Z,102784.88
2019-04-11T23:20:14.452Z,102782.95
2019-04-11T23:22:44.239Z,102787.69
2019-04-11T23:25:14.541Z,102790.62
2019-04-11T23:27:44.983Z,102784.95
2019-04-11T23:30:18.418Z,102783.98
2019-04-11T23:32:51.048Z,102791.80
2019-04-11T23:35:21.146Z,102791.30
2019-04-11T23:37:52.234Z,102783.01
2019-04-11T23:40:23.218Z,102786.92
2019-04-11T23:42:53.671Z,102786.83
2019-04-11T23:45:26.533Z,102786.75
2019-04-11T23:47:56.899Z,102786.70
2019-04-11T23:50:27.268Z,102788.80
2019-04-11T23:52:58.137Z,102787.02
2019-04-11T23:55:30.770Z,102790.52
2019-04-11T23:58:02.212Z,102786.94
